createdAt,value
2022-08-05T00:00:35.198Z,2.75
2022-08-05T00:03:07.950Z,2.90
2022-08-05T00:06:05.341Z,2.60
2022-08-05T00:08:19.787Z,3.25
2022-08-05T00:11:00.788Z,3.05
2022-08-05T00:13:38.383Z,3.15
2022-08-05T00:16:01.246Z,3.10
2022-08-05T00:18:22.865Z,2.90
2022-08-05T00:20:44.358Z,3.33
2022-08-05T00:23:12.775Z,2.85
2022-08-05T00:25:46.166Z,3.13
2022-08-05T00:28:07.811Z,3.00
2022-08-05T00:30:34.172Z,3.35
2022-08-05T00:32:55.608Z,2.92
2022-08-05T00:35:20.297Z,3.13
2022-08-05T00:37:53.022Z,3.10
2022-08-05T00:40:17.933Z,3.10
2022-08-05T00:42:50.037Z,3.10
2022-08-05T00:45:13.559Z,3.15
2022-08-05T00:47:53.488Z,3.40
2022-08-05T00:50:17.767Z,3.10
2022-08-05T00:52:39.238Z,3.50
2022-08-05T00:55:00.796Z,3.13
2022-08-05T00:57:22.596Z,3.10
2022-08-05T00:59:48.609Z,2.90
2022-08-05T01:02:10.143Z,3.08
2022-08-05T01:04:32.935Z,3.28
2022-08-05T01:06:55.074Z,3.03
2022-08-05T01:09:17.411Z,2.95
2022-08-05T01:11:42.057Z,3.17
2022-08-05T01:14:10.039Z,3.50
2022-08-05T01:16:39.032Z,3.17
2022-08-05T01:19:12.182Z,3.70
2022-08-05T01:21:38.684Z,3.53
2022-08-05T01:24:14.209Z,3.03
2022-08-05T01:27:20.441Z,3.90
2022-08-05T01:29:49.098Z,3.58
2022-08-05T01:32:18.920Z,3.20
2022-08-05T01:35:13.093Z,3.72
2022-08-05T01:37:57.857Z,3.40
2022-08-05T01:40:29.020Z,2.97
2022-08-05T01:42:52.852Z,3.10
2022-08-05T01:45:16.659Z,3.60
2022-08-05T01:47:43.146Z,3.13
2022-08-05T01:50:08.075Z,2.97
2022-08-05T01:52:38.660Z,3.38
2022-08-05T01:55:04.726Z,4.05
2022-08-05T01:58:18.883Z,3.60
2022-08-05T02:00:14.142Z,3.47
2022-08-05T02:02:51.156Z,3.30
2022-08-05T02:05:16.276Z,3.47
2022-08-05T02:07:39.161Z,3.50
2022-08-05T02:10:01.234Z,3.47
2022-08-05T02:12:33.290Z,3.72
2022-08-05T02:15:12.211Z,3.92
2022-08-05T02:18:30.790Z,3.40
2022-08-05T02:20:25.022Z,3.30
2022-08-05T02:22:55.936Z,2.80
2022-08-05T02:25:19.505Z,3.10
2022-08-05T02:27:59.461Z,3.80
2022-08-05T02:30:23.651Z,3.85
2022-08-05T02:32:52.586Z,3.35
2022-08-05T02:35:27.671Z,4.88
2022-08-05T02:37:53.974Z,5.28
2022-08-05T02:40:17.114Z,4.75
2022-08-05T02:42:39.388Z,5.05
2022-08-05T02:45:02.564Z,4.65
2022-08-05T02:48:07.091Z,4.20
2022-08-05T02:50:29.355Z,5.63
2022-08-05T02:52:53.107Z,4.93
2022-08-05T02:55:17.697Z,5.53
2022-08-05T02:58:11.119Z,5.13
2022-08-05T03:00:37.250Z,5.47
2022-08-05T03:03:01.771Z,5.07
2022-08-05T03:06:57.244Z,4.93
2022-08-05T03:08:11.501Z,4.85
2022-08-05T03:10:33.266Z,4.90
2022-08-05T03:12:55.153Z,4.80
2022-08-05T03:15:16.638Z,5.38
2022-08-05T03:17:41.545Z,5.22
2022-08-05T03:20:05.357Z,5.20
2022-08-05T03:22:32.224Z,5.15
2022-08-05T03:24:55.746Z,5.90
2022-08-05T03:27:24.191Z,5.60
2022-08-05T03:30:08.099Z,5.28
2022-08-05T03:32:31.452Z,5.97
2022-08-05T03:34:53.546Z,5.00
2022-08-05T03:37:15.586Z,5.45
2022-08-05T03:39:57.666Z,6.53
2022-08-05T03:42:18.914Z,6.72
2022-08-05T03:44:40.362Z,6.15
2022-08-05T03:47:01.840Z,6.18
2022-08-05T03:49:31.009Z,6.38
2022-08-05T03:52:39.017Z,5.95
2022-08-05T03:55:51.766Z,5.72
2022-08-05T03:57:44.766Z,5.60
2022-08-05T04:00:16.297Z,5.68
2022-08-05T04:02:57.697Z,5.82
2022-08-05T04:05:19.941Z,6.38
2022-08-05T04:07:57.063Z,6.28
2022-08-05T04:10:20.723Z,6.10
2022-08-05T04:15:02.915Z,5.90
2022-08-05T04:17:25.911Z,6.18
2022-08-05T04:20:07.504Z,6.80
2022-08-05T04:22:32.288Z,7.22
2022-08-05T04:24:56.287Z,7.43
2022-08-05T04:27:17.835Z,7.65
2022-08-05T04:29:41.566Z,7.65
2022-08-05T04:32:03.904Z,7.70
2022-08-05T04:34:32.284Z,7.80
2022-08-05T04:36:55.660Z,7.47
2022-08-05T04:39:18.852Z,7.30
2022-08-05T04:41:40.619Z,7.13
2022-08-05T04:44:09.532Z,6.75
2022-08-05T04:46:31.433Z,7.30
2022-08-05T04:48:52.907Z,7.25
2022-08-05T04:51:14.435Z,6.70
2022-08-05T04:53:35.899Z,7.47
2022-08-05T04:56:32.931Z,7.40
2022-08-05T04:58:38.802Z,8.25
2022-08-05T05:01:00.330Z,8.35
2022-08-05T05:03:22.154Z,8.48
2022-08-05T05:06:35.885Z,8.52
2022-08-05T05:08:30.090Z,8.00
2022-08-05T05:10:56.353Z,7.50
2022-08-05T05:13:18.367Z,7.20
2022-08-05T05:15:56.632Z,7.97
2022-08-05T05:18:31.135Z,6.75
2022-08-05T05:20:55.509Z,6.63
2022-08-05T05:23:19.947Z,5.55
2022-08-05T05:25:42.594Z,5.00
2022-08-05T05:28:04.349Z,4.22
2022-08-05T05:30:29.624Z,4.90
2022-08-05T05:32:53.422Z,5.45
2022-08-05T05:35:19.911Z,5.45
2022-08-05T05:38:00.088Z,5.72
2022-08-05T05:40:26.019Z,3.92
2022-08-05T05:42:48.283Z,3.83
2022-08-05T05:45:11.141Z,3.40
2022-08-05T05:48:05.354Z,3.70
2022-08-05T05:50:19.815Z,5.10
2022-08-05T05:52:42.365Z,4.75
2022-08-05T05:55:13.602Z,5.45
2022-08-05T05:57:42.744Z,4.72
2022-08-05T06:00:19.854Z,5.28
2022-08-05T06:02:41.629Z,4.90
2022-08-05T06:05:03.682Z,4.55
2022-08-05T06:07:42.110Z,5.00
2022-08-05T06:10:10.193Z,4.57
2022-08-05T06:12:32.389Z,4.43
2022-08-05T06:14:54.890Z,4.38
2022-08-05T06:17:22.573Z,4.32
2022-08-05T06:19:56.566Z,4.20
2022-08-05T06:22:25.962Z,3.63
2022-08-05T06:24:48.407Z,3.63
2022-08-05T06:28:09.218Z,3.53
2022-08-05T06:30:04.615Z,3.70
2022-08-05T06:32:33.470Z,4.00
2022-08-05T06:34:56.398Z,3.15
2022-08-05T06:37:18.690Z,3.47
2022-08-05T06:40:00.151Z,3.50
2022-08-05T06:42:24.189Z,4.13
2022-08-05T06:44:46.837Z,3.78
2022-08-05T06:47:30.041Z,3.70
2022-08-05T06:50:01.096Z,3.45
2022-08-05T06:52:37.789Z,3.20
2022-08-05T06:54:59.833Z,3.22
2022-08-05T06:57:57.496Z,3.60
2022-08-05T07:00:05.941Z,2.90
2022-08-05T07:02:31.327Z,3.63
2022-08-05T07:04:52.795Z,3.10
2022-08-05T07:07:15.174Z,3.65
2022-08-05T07:09:37.446Z,4.07
2022-08-05T07:12:02.190Z,3.63
2022-08-05T07:14:42.079Z,4.00
2022-08-05T07:17:59.467Z,4.13
2022-08-05T07:22:30.043Z,3.55
2022-08-05T07:24:52.653Z,3.75
2022-08-05T07:27:15.263Z,3.42
2022-08-05T07:30:28.453Z,2.83
2022-08-05T07:32:18.304Z,3.15
2022-08-05T07:34:47.832Z,3.03
2022-08-05T07:37:19.615Z,3.20
2022-08-05T07:40:04.063Z,3.13
2022-08-05T07:42:33.598Z,2.83
2022-08-05T07:44:56.047Z,2.95
2022-08-05T07:47:17.968Z,2.85
2022-08-05T07:49:43.588Z,3.05
2022-08-05T07:52:16.154Z,2.85
2022-08-05T07:54:38.629Z,3.03
2022-08-05T07:57:17.765Z,2.60
2022-08-05T07:59:46.966Z,2.83
2022-08-05T08:02:15.873Z,2.67
2022-08-05T08:04:38.976Z,3.25
2022-08-05T08:07:01.036Z,2.60
2022-08-05T08:09:29.062Z,2.70
2022-08-05T08:11:59.012Z,2.72
2022-08-05T08:14:23.474Z,2.90
2022-08-05T08:16:50.927Z,2.88
2022-08-05T08:19:18.723Z,2.83
2022-08-05T08:21:54.489Z,2.85
2022-08-05T08:24:15.969Z,2.50
2022-08-05T08:26:37.486Z,2.90
2022-08-05T08:29:29.488Z,2.63
2022-08-05T08:31:44.447Z,2.80
2022-08-05T08:34:07.677Z,2.67
2022-08-05T08:36:52.457Z,2.63
2022-08-05T08:39:15.025Z,2.83
2022-08-05T08:41:51.683Z,2.65
2022-08-05T08:45:22.799Z,2.88
2022-08-05T08:47:47.014Z,2.60
2022-08-05T08:50:14.162Z,2.47
2022-08-05T08:52:33.857Z,2.70
2022-08-05T08:54:55.713Z,2.63
2022-08-05T08:57:19.645Z,2.67
2022-08-05T08:59:47.452Z,2.30
2022-08-05T09:02:11.338Z,1.95
2022-08-05T09:04:58.224Z,2.20
2022-08-05T09:07:28.816Z,2.03
2022-08-05T09:09:50.904Z,2.10
2022-08-05T09:12:20.023Z,2.22
2022-08-05T09:14:56.989Z,2.25
2022-08-05T09:17:42.499Z,1.75
2022-08-05T09:20:05.716Z,2.20
2022-08-05T09:22:31.830Z,2.05
2022-08-05T09:25:13.528Z,1.98
2022-08-05T09:28:04.537Z,2.15
2022-08-05T09:30:25.990Z,2.20
2022-08-05T09:32:47.884Z,1.95
2022-08-05T09:35:12.663Z,2.28
2022-08-05T09:38:16.934Z,2.15
2022-08-05T09:40:41.190Z,2.28
2022-08-05T09:43:41.139Z,2.30
2022-08-05T09:46:08.937Z,2.47
2022-08-05T09:48:34.778Z,2.42
2022-08-05T09:51:14.987Z,2.28
2022-08-05T09:53:58.940Z,2.65
2022-08-05T09:56:26.856Z,2.30
2022-08-05T09:58:58.478Z,2.30
2022-08-05T10:01:22.558Z,2.20
2022-08-05T10:04:00.326Z,2.08
2022-08-05T10:06:21.997Z,2.35
2022-08-05T10:08:43.591Z,2.45
2022-08-05T10:11:16.400Z,2.78
2022-08-05T10:13:47.222Z,2.50
2022-08-05T10:16:33.824Z,2.20
2022-08-05T10:18:55.887Z,2.47
2022-08-05T10:21:18.639Z,2.45
2022-08-05T10:23:58.974Z,2.65
2022-08-05T10:26:24.448Z,2.65
2022-08-05T10:28:56.394Z,2.75
2022-08-05T10:32:54.991Z,2.60
2022-08-05T10:33:59.862Z,2.47
2022-08-05T10:36:23.533Z,2.72
2022-08-05T10:38:49.559Z,2.67
2022-08-05T10:41:46.410Z,2.90
2022-08-05T10:44:13.669Z,2.72
2022-08-05T10:46:54.036Z,2.75
2022-08-05T10:49:17.106Z,2.60
2022-08-05T10:51:53.107Z,2.45
2022-08-05T10:54:28.477Z,3.00
2022-08-05T10:56:55.897Z,3.00
2022-08-05T11:00:04.122Z,3.00
2022-08-05T11:02:38.088Z,3.40
2022-08-05T11:04:55.954Z,3.25
2022-08-05T11:07:18.710Z,3.20
2022-08-05T11:10:09.614Z,3.20
2022-08-05T11:12:45.461Z,3.50
2022-08-05T11:15:59.969Z,3.17
2022-08-05T11:18:27.289Z,3.22
2022-08-05T11:20:53.202Z,3.15
2022-08-05T11:24:14.662Z,3.47
2022-08-05T11:26:49.650Z,3.30
2022-08-05T11:29:35.908Z,3.38
2022-08-05T11:32:26.864Z,3.45
2022-08-05T11:34:54.029Z,3.65
2022-08-05T11:38:26.653Z,3.45
2022-08-05T11:41:00.392Z,3.85
2022-08-05T11:44:00.918Z,3.70
2022-08-05T11:46:27.171Z,3.40
2022-08-05T11:48:46.597Z,3.65
2022-08-05T11:51:14.563Z,3.45
2022-08-05T11:53:56.876Z,3.47
2022-08-05T11:56:18.396Z,3.70
2022-08-05T11:58:59.840Z,3.45
2022-08-05T12:01:23.239Z,3.55
2022-08-05T12:03:57.233Z,3.55
2022-08-05T12:06:22.329Z,3.38
2022-08-05T12:08:55.839Z,3.38
2022-08-05T12:11:28.346Z,3.45
2022-08-05T12:14:05.983Z,3.55
2022-08-05T12:16:38.527Z,3.35
2022-08-05T12:19:00.405Z,3.65
2022-08-05T12:21:42.132Z,3.13
2022-08-05T12:24:10.577Z,3.35
2022-08-05T12:26:33.015Z,3.65
2022-08-05T12:28:54.526Z,4.13
2022-08-05T12:31:23.690Z,3.63
2022-08-05T12:33:57.296Z,3.53
2022-08-05T12:36:19.920Z,3.80
2022-08-05T12:38:41.819Z,3.17
2022-08-05T12:41:03.602Z,13.00
2022-08-05T12:43:25.134Z,4.18
2022-08-05T12:45:55.478Z,3.67
2022-08-05T12:48:27.387Z,3.72
2022-08-05T12:52:11.074Z,3.28
2022-08-05T12:53:55.573Z,3.83
2022-08-05T12:56:34.024Z,3.67
2022-08-05T12:59:14.146Z,3.58
2022-08-05T13:02:01.517Z,3.88
2022-08-05T13:04:52.607Z,3.58
2022-08-05T13:07:54.698Z,3.40
2022-08-05T13:10:11.903Z,3.72
2022-08-05T13:12:50.789Z,3.97
2022-08-05T13:15:24.473Z,3.67
2022-08-05T13:17:59.197Z,4.00
2022-08-05T13:20:24.636Z,3.70
2022-08-05T13:22:50.233Z,3.85
2022-08-05T13:25:18.811Z,3.53
2022-08-05T13:27:42.626Z,4.00
2022-08-05T13:30:33.802Z,3.20
2022-08-05T13:32:50.383Z,3.55
2022-08-05T13:35:12.612Z,3.38
2022-08-05T13:37:35.966Z,3.47
2022-08-05T13:40:16.839Z,3.33
2022-08-05T13:42:41.850Z,3.58
2022-08-05T13:45:03.952Z,3.20
2022-08-05T13:47:35.530Z,3.00
2022-08-05T13:49:57.900Z,2.63
2022-08-05T13:52:29.740Z,2.78
2022-08-05T13:54:54.180Z,2.90
2022-08-05T13:57:16.997Z,2.78
2022-08-05T13:59:57.585Z,2.83
2022-08-05T14:02:26.663Z,2.97
2022-08-05T14:05:11.606Z,3.08
2022-08-05T14:08:01.223Z,2.90
2022-08-05T14:10:28.101Z,3.72
2022-08-05T14:12:50.826Z,3.35
2022-08-05T14:16:07.634Z,3.42
2022-08-05T14:17:59.741Z,3.30
2022-08-05T14:20:27.336Z,3.08
2022-08-05T14:22:50.330Z,3.60
2022-08-05T14:25:21.499Z,3.63
2022-08-05T14:27:47.297Z,3.67
2022-08-05T14:30:19.996Z,4.20
2022-08-05T14:32:43.032Z,4.35
2022-08-05T14:35:06.269Z,6.40
2022-08-05T14:37:44.764Z,6.90
2022-08-05T14:40:10.402Z,6.68
2022-08-05T14:42:36.368Z,7.45
2022-08-05T14:44:59.498Z,8.60
2022-08-05T14:48:03.701Z,8.45
2022-08-05T14:50:15.652Z,9.13
2022-08-05T14:52:52.365Z,10.57
2022-08-05T14:55:15.357Z,9.50
2022-08-05T14:57:54.663Z,11.23
2022-08-05T15:00:19.957Z,10.77
2022-08-05T15:02:41.613Z,10.70
2022-08-05T15:05:08.749Z,11.30
2022-08-05T15:08:08.881Z,10.70
2022-08-05T15:10:16.628Z,10.60
2022-08-05T15:12:59.416Z,9.65
2022-08-05T15:15:55.933Z,9.93
2022-08-05T15:18:03.882Z,9.68
2022-08-05T15:20:27.458Z,8.95
2022-08-05T15:22:52.239Z,9.57
2022-08-05T15:25:16.148Z,8.48
2022-08-05T15:27:52.460Z,9.82
2022-08-05T15:30:16.475Z,8.82
2022-08-05T15:32:38.153Z,8.45
2022-08-05T15:35:04.097Z,8.45
2022-08-05T15:38:32.282Z,7.82
2022-08-05T15:40:59.097Z,6.75
2022-08-05T15:43:01.569Z,7.05
2022-08-05T15:45:37.816Z,7.05
2022-08-05T15:48:03.499Z,6.57
2022-08-05T15:50:25.187Z,6.70
2022-08-05T15:52:53.128Z,6.32
2022-08-05T15:55:17.597Z,5.88
2022-08-05T15:57:41.572Z,5.80
2022-08-05T16:00:08.231Z,5.68
2022-08-05T16:02:29.926Z,5.20
2022-08-05T16:04:52.824Z,5.32
2022-08-05T16:07:14.943Z,5.18
2022-08-05T16:09:36.568Z,5.40
2022-08-05T16:11:58.067Z,4.30
2022-08-05T16:14:19.837Z,4.35
2022-08-05T16:16:41.647Z,3.75
2022-08-05T16:19:03.658Z,4.07
2022-08-05T16:21:59.965Z,3.95
2022-08-05T16:24:07.560Z,3.92
2022-08-05T16:26:34.482Z,3.63
2022-08-05T16:28:56.518Z,3.88
2022-08-05T16:31:18.012Z,3.40
2022-08-05T16:33:41.582Z,4.00
2022-08-05T16:36:05.109Z,3.65
2022-08-05T16:38:28.166Z,3.92
2022-08-05T16:40:55.515Z,4.20
2022-08-05T16:43:23.774Z,3.60
2022-08-05T16:46:04.677Z,4.00
2022-08-05T16:48:33.985Z,3.83
2022-08-05T16:50:59.200Z,4.20
2022-08-05T16:53:31.922Z,3.95
2022-08-05T16:55:54.125Z,3.65
2022-08-05T16:58:19.930Z,2.92
2022-08-05T17:00:41.617Z,2.70
2022-08-05T17:03:15.280Z,2.55
2022-08-05T17:05:41.899Z,2.47
2022-08-05T17:08:03.474Z,2.30
2022-08-05T17:10:26.445Z,1.95
2022-08-05T17:12:52.426Z,2.33
2022-08-05T17:15:15.525Z,2.25
2022-08-05T17:17:42.088Z,2.00
2022-08-05T17:20:07.495Z,2.15
2022-08-05T17:22:29.481Z,2.38
2022-08-05T17:24:57.702Z,2.30
2022-08-05T17:27:20.077Z,2.05
2022-08-05T17:29:41.830Z,2.20
2022-08-05T17:32:03.645Z,2.38
2022-08-05T17:34:30.008Z,2.30
2022-08-05T17:36:54.034Z,2.20
2022-08-05T17:39:24.312Z,2.13
2022-08-05T17:42:19.729Z,2.10
2022-08-05T17:44:36.478Z,2.10
2022-08-05T17:46:57.944Z,1.80
2022-08-05T17:49:19.510Z,1.77
2022-08-05T17:51:46.060Z,1.92
2022-08-05T17:54:11.551Z,1.75
2022-08-05T17:56:35.798Z,1.50
2022-08-05T17:58:58.255Z,1.50
2022-08-05T18:01:19.811Z,1.50
2022-08-05T18:03:57.814Z,1.73
2022-08-05T18:06:29.514Z,1.50
2022-08-05T18:08:53.147Z,1.42
2022-08-05T18:11:23.952Z,1.30
2022-08-05T18:13:54.355Z,1.70
2022-08-05T18:16:18.075Z,1.50
2022-08-05T18:18:42.131Z,1.20
2022-08-05T18:21:13.266Z,1.30
2022-08-05T18:23:47.047Z,1.35
2022-08-05T18:26:08.767Z,1.52
2022-08-05T18:28:30.302Z,1.33
2022-08-05T18:30:52.737Z,1.20
2022-08-05T18:33:14.925Z,1.50
2022-08-05T18:36:00.640Z,1.52
2022-08-05T18:38:25.907Z,1.30
2022-08-05T18:41:57.001Z,1.63
2022-08-05T18:43:31.530Z,1.63
2022-08-05T18:46:00.419Z,1.55
2022-08-05T18:48:31.293Z,1.23
2022-08-05T18:52:04.583Z,1.35
2022-08-05T18:53:54.660Z,1.40
2022-08-05T18:56:16.200Z,1.70
2022-08-05T18:58:37.702Z,1.30
2022-08-05T19:01:04.630Z,1.40
2022-08-05T19:03:53.461Z,1.35
2022-08-05T19:06:18.753Z,1.63
2022-08-05T19:08:44.029Z,1.52
2022-08-05T19:11:09.888Z,1.65
2022-08-05T19:13:35.589Z,1.95
2022-08-05T19:16:03.626Z,1.58
2022-08-05T19:18:25.557Z,1.52
2022-08-05T19:20:48.281Z,1.50
2022-08-05T19:23:22.714Z,1.73
2022-08-05T19:25:51.201Z,1.67
2022-08-05T19:28:23.728Z,1.65
2022-08-05T19:30:49.489Z,1.45
2022-08-05T19:33:12.942Z,1.50
2022-08-05T19:35:56.006Z,1.42
2022-08-05T19:38:26.541Z,1.70
2022-08-05T19:40:48.376Z,1.38
2022-08-05T19:44:03.944Z,1.50
2022-08-05T19:45:56.185Z,1.60
2022-08-05T19:48:17.804Z,1.77
2022-08-05T19:50:41.234Z,1.90
2022-08-05T19:53:09.276Z,1.45
2022-08-05T19:56:14.954Z,2.00
2022-08-05T19:58:28.817Z,1.63
2022-08-05T20:00:52.708Z,1.70
2022-08-05T20:03:14.320Z,1.63
2022-08-05T20:05:49.830Z,1.70
2022-08-05T20:08:12.140Z,1.65
2022-08-05T20:10:35.749Z,2.03
2022-08-05T20:12:58.478Z,1.73
2022-08-05T20:15:48.876Z,1.77
2022-08-05T20:18:10.738Z,2.50
2022-08-05T20:20:47.362Z,2.05
2022-08-05T20:23:08.842Z,1.80
2022-08-05T20:25:40.128Z,1.63
2022-08-05T20:28:01.765Z,1.70
2022-08-05T20:30:23.848Z,1.60
2022-08-05T20:32:47.965Z,1.77
2022-08-05T20:35:09.620Z,1.90
2022-08-05T20:38:06.255Z,1.50
2022-08-05T20:40:15.213Z,1.77
2022-08-05T20:42:39.760Z,1.90
2022-08-05T20:45:06.283Z,1.80
2022-08-05T20:47:31.737Z,2.10
2022-08-05T20:49:54.019Z,1.98
2022-08-05T20:52:16.963Z,1.70
2022-08-05T20:54:42.847Z,1.48
2022-08-05T20:57:42.037Z,1.75
2022-08-05T21:00:19.756Z,1.80
2022-08-05T21:02:51.453Z,1.70
2022-08-05T21:05:13.781Z,1.60
2022-08-05T21:07:50.773Z,2.00
2022-08-05T21:10:14.004Z,1.83
2022-08-05T21:12:36.570Z,2.00
2022-08-05T21:15:00.645Z,2.10
2022-08-05T21:17:22.174Z,2.00
2022-08-05T21:19:47.948Z,1.70
2022-08-05T21:22:12.146Z,1.90
2022-08-05T21:24:35.896Z,1.90
2022-08-05T21:26:58.342Z,2.03
2022-08-05T21:29:20.315Z,2.00
2022-08-05T21:31:47.853Z,1.90
2022-08-05T21:34:10.439Z,1.92
2022-08-05T21:36:32.899Z,1.95
2022-08-05T21:38:54.832Z,1.98
2022-08-05T21:41:16.572Z,2.20
2022-08-05T21:43:42.398Z,1.83
2022-08-05T21:46:12.604Z,2.20
2022-08-05T21:48:35.413Z,1.95
2022-08-05T21:50:57.570Z,2.00
2022-08-05T21:53:19.040Z,2.13
2022-08-05T21:56:01.136Z,1.88
2022-08-05T21:58:24.953Z,2.20
2022-08-05T22:00:53.775Z,2.30
2022-08-05T22:03:15.300Z,2.17
2022-08-05T22:05:48.406Z,2.08
2022-08-05T22:08:22.159Z,1.90
2022-08-05T22:10:45.851Z,2.50
2022-08-05T22:14:06.121Z,2.27
2022-08-05T22:16:00.445Z,2.42
2022-08-05T22:18:26.333Z,2.17
2022-08-05T22:20:51.575Z,2.83
2022-08-05T22:24:01.815Z,2.60
2022-08-05T22:26:32.703Z,2.10
2022-08-05T22:28:55.123Z,2.10
2022-08-05T22:31:16.596Z,2.08
2022-08-05T22:33:58.606Z,2.15
2022-08-05T22:36:19.593Z,2.70
2022-08-05T22:38:48.202Z,2.35
2022-08-05T22:41:10.836Z,2.42
2022-08-05T22:43:37.504Z,2.30
2022-08-05T22:45:59.552Z,2.30
2022-08-05T22:48:22.185Z,2.00
2022-08-05T22:50:56.228Z,1.90
2022-08-05T22:53:18.136Z,2.28
2022-08-05T22:55:56.953Z,2.17
2022-08-05T22:58:28.249Z,2.40
2022-08-05T23:00:50.361Z,2.33
2022-08-05T23:03:13.514Z,2.25
2022-08-05T23:05:36.079Z,2.40
2022-08-05T23:07:57.816Z,2.25
2022-08-05T23:10:23.930Z,2.35
2022-08-05T23:12:45.779Z,2.20
2022-08-05T23:15:08.919Z,2.50
2022-08-05T23:17:37.151Z,2.13
2022-08-05T23:20:02.421Z,2.40
2022-08-05T23:22:27.508Z,2.33
2022-08-05T23:24:51.216Z,1.93
2022-08-05T23:27:12.912Z,2.20
2022-08-05T23:29:34.888Z,2.07
2022-08-05T23:31:58.082Z,2.80
2022-08-05T23:34:24.484Z,2.30
2022-08-05T23:36:46.639Z,2.50
2022-08-05T23:39:08.327Z,2.40
2022-08-05T23:41:29.949Z,2.57
2022-08-05T23:44:05.623Z,2.47
2022-08-05T23:46:30.091Z,2.20
2022-08-05T23:48:59.666Z,2.60
2022-08-05T23:51:23.295Z,2.80
2022-08-05T23:53:46.455Z,2.57
2022-08-05T23:56:08.649Z,2.20
2022-08-05T23:58:32.130Z,2.90
